Time;durP1;ratioP1;P1;durP2;ratioP2;P2;SDS_P1;SDS_P2;PMS_P1;PMS_P2;Temp;Humidity;BMP_temperature;BMP_pressure;BME280_temperature;BME280_humidity;BME280_pressure;Samples;Min_cycle;Max_cycle;Signal;HPM_P1;HPM_P2
2024/04/01 00:00:39;;;;;;;49.35;10.75;;;;;;;16.59;49.44;98513.00;5058714;27;96561;-87
2024/04/01 00:03:05;;;;;;;63.10;9.90;;;;;;;16.62;49.14;98515.41;5042328;27;96552;-87
2024/04/01 00:05:31;;;;;;;47.90;9.55;;;;;;;16.55;49.36;98511.63;5037624;27;100280;-87
2024/04/01 00:07:56;;;;;;;49.03;9.02;;;;;;;16.57;49.30;98506.19;5055331;27;98303;-88
2024/04/01 00:10:23;;;;;;;50.55;8.73;;;;;;;16.44;49.46;98501.13;5038594;27;96641;-88
2024/04/01 00:12:49;;;;;;;65.13;10.82;;;;;;;16.62;49.23;98510.09;5055576;27;96857;-89
2024/04/01 00:15:16;;;;;;;45.85;9.60;;;;;;;16.47;49.48;98506.16;5038264;27;97932;-88
2024/04/01 00:17:42;;;;;;;49.88;8.63;;;;;;;16.53;49.43;98517.03;5055794;27;97980;-89
2024/04/01 00:20:08;;;;;;;48.70;10.45;;;;;;;16.51;49.30;98515.50;5055521;27;96612;-88
2024/04/01 00:22:34;;;;;;;57.03;11.77;;;;;;;16.55;49.33;98516.06;5038394;27;96879;-88
2024/04/01 00:24:59;;;;;;;47.33;11.13;;;;;;;16.46;49.53;98520.34;5037470;27;101513;-88
2024/04/01 00:27:25;;;;;;;50.53;10.98;;;;;;;16.30;49.65;98515.53;5037945;27;100084;-88
2024/04/01 00:29:50;;;;;;;42.33;8.55;;;;;;;16.00;50.33;98511.06;5038319;27;96546;-89
2024/04/01 00:32:16;;;;;;;39.00;8.45;;;;;;;16.13;50.21;98514.34;5021356;27;96929;-89
2024/04/01 00:34:41;;;;;;;48.45;10.88;;;;;;;16.16;50.06;98519.38;5021149;27;101753;-89
2024/04/01 00:37:07;;;;;;;57.65;11.85;;;;;;;16.17;50.04;98526.31;5038028;27;100957;-88
2024/04/01 00:39:32;;;;;;;60.42;8.88;;;;;;;16.18;50.24;98527.19;5020582;27;96722;-90
2024/04/01 00:41:58;;;;;;;47.60;9.55;;;;;;;16.02;50.36;98523.19;5038644;27;96839;-89
2024/04/01 00:44:23;;;;;;;42.90;8.82;;;;;;;16.11;50.09;98515.44;5037642;27;101817;-88
2024/04/01 00:46:50;;;;;;;49.08;10.70;;;;;;;16.08;50.35;98519.19;5037922;27;98287;-89
2024/04/01 00:49:17;;;;;;;53.03;10.63;;;;;;;16.05;50.52;98512.34;5037593;27;96595;-89
2024/04/01 00:51:43;;;;;;;46.25;9.50;;;;;;;16.02;50.37;98523.19;5055139;27;96842;-89
2024/04/01 00:54:08;;;;;;;41.88;8.98;;;;;;;15.98;50.37;98527.06;5021130;27;99927;-89
2024/04/01 00:56:34;;;;;;;45.03;9.57;;;;;;;16.00;50.63;98517.19;5037581;27;100972;-88
2024/04/01 00:59:02;;;;;;;45.45;7.90;;;;;;;16.09;50.26;98505.00;5038281;27;96498;-89
2024/04/01 01:01:30;;;;;;;47.05;8.02;;;;;;;15.98;50.27;98516.47;5021277;27;96909;-89
2024/04/01 01:03:56;;;;;;;47.17;9.63;;;;;;;15.91;51.10;98506.53;5022419;27;100875;-89
2024/04/01 01:06:23;;;;;;;51.95;9.45;;;;;;;16.04;50.19;98494.78;5041211;27;101475;-89
2024/04/01 01:08:50;;;;;;;53.60;10.32;;;;;;;16.04;50.39;98493.97;5024173;27;96554;-88
2024/04/01 01:11:15;;;;;;;55.20;11.50;;;;;;;16.06;50.11;98484.91;5076296;27;96770;-88
2024/04/01 01:13:41;;;;;;;44.63;8.98;;;;;;;15.94;50.37;98478.03;5023623;27;101116;-89
2024/04/01 01:16:07;;;;;;;44.35;9.50;;;;;;;15.84;50.30;98471.84;5057558;27;101599;-89
2024/04/01 01:18:33;;;;;;;53.17;8.00;;;;;;;15.75;50.18;98475.25;5041222;27;96539;-89
2024/04/01 01:20:58;;;;;;;50.55;7.35;;;;;;;15.73;50.41;98463.97;5041045;27;96865;-89
2024/04/01 01:23:24;;;;;;;55.95;9.60;;;;;;;15.78;50.15;98456.47;5040542;27;101015;-89
2024/04/01 01:25:49;;;;;;;35.80;8.30;;;;;;;15.72;50.24;98465.78;5057806;27;98170;-88
2024/04/01 01:28:15;;;;;;;35.25;7.15;;;;;;;15.78;50.03;98467.06;5024311;27;96629;-88
2024/04/01 01:30:40;;;;;;;32.67;8.10;;;;;;;15.81;50.29;98458.88;5024748;27;96817;-88
2024/04/01 01:33:07;;;;;;;39.30;7.30;;;;;;;15.78;50.28;98449.38;5040521;27;101610;-89
2024/04/01 01:35:37;;;;;;;45.08;8.13;;;;;;;15.84;50.04;98437.44;5040640;27;100365;-89
2024/04/01 01:38:04;;;;;;;24.90;6.13;;;;;;;15.82;49.83;98434.09;5040810;27;96677;-89
2024/04/01 01:40:29;;;;;;;37.40;8.48;;;;;;;15.87;50.06;98434.53;5040855;27;96911;-88
2024/04/01 01:42:55;;;;;;;32.78;7.05;;;;;;;15.69;49.88;98426.38;5023567;27;101833;-89
2024/04/01 01:45:21;;;;;;;35.67;8.82;;;;;;;15.69;50.10;98423.72;5057711;27;96833;-88
2024/04/01 01:47:46;;;;;;;45.95;7.28;;;;;;;15.70;49.76;98406.88;5041024;27;96565;-89
2024/04/01 01:50:12;;;;;;;46.60;8.38;;;;;;;15.67;50.02;98411.56;5040755;27;97155;-89
2024/04/01 01:52:37;;;;;;;35.92;5.85;;;;;;;15.60;50.30;98406.78;5042631;27;101706;-88
2024/04/01 01:55:04;;;;;;;27.05;5.15;;;;;;;15.27;50.75;98406.97;5060970;27;101257;-89
2024/04/01 01:57:31;;;;;;;42.22;6.35;;;;;;;15.09;51.33;98409.34;5027413;27;96586;-89
2024/04/01 01:59:57;;;;;;;22.10;4.82;;;;;;;15.00;51.88;98407.47;5044254;27;96978;-89
2024/04/01 02:02:22;;;;;;;27.27;4.88;;;;;;;15.02;51.59;98413.47;5043301;27;101611;-88
2024/04/01 02:04:48;;;;;;;28.52;4.60;;;;;;;14.94;51.64;98425.50;5060328;27;98390;-89
2024/04/01 02:07:13;;;;;;;32.55;5.65;;;;;;;14.89;51.88;98422.41;5044133;27;96588;-89
2024/04/01 02:09:39;;;;;;;21.02;4.57;;;;;;;14.89;51.73;98417.13;5027255;27;96767;-89
2024/04/01 02:12:07;;;;;;;32.75;5.97;;;;;;;15.04;51.67;98419.47;5043555;27;101544;-89
2024/04/01 02:14:34;;;;;;;34.47;5.18;;;;;;;15.14;51.23;98418.59;5026769;27;100262;-89
2024/04/01 02:16:59;;;;;;;28.65;5.97;;;;;;;15.32;50.92;98425.94;5044083;27;96572;-88
2024/04/01 02:19:25;;;;;;;28.35;6.10;;;;;;;15.36;51.14;98422.09;5044463;27;96926;-89
2024/04/01 02:21:50;;;;;;;25.73;5.50;;;;;;;15.36;51.00;98428.22;5026590;27;99723;-89
2024/04/01 02:24:17;;;;;;;31.75;5.97;;;;;;;15.20;51.29;98422.53;5043486;27;101382;-89
2024/04/01 02:26:46;;;;;;;28.00;5.65;;;;;;;15.15;51.63;98427.34;5043328;27;96633;-89
2024/04/01 02:29:12;;;;;;;29.30;5.63;;;;;;;15.17;51.18;98425.41;5026625;27;96828;-88
2024/04/01 02:31:38;;;;;;;24.73;5.10;;;;;;;15.40;50.75;98420.88;5043250;27;101489;-88
2024/04/01 02:34:04;;;;;;;29.83;7.00;;;;;;;15.38;51.08;98423.63;5043238;27;101107;-89
2024/04/01 02:36:30;;;;;;;32.30;5.75;;;;;;;15.31;51.02;98419.00;5026708;27;96559;-89
2024/04/01 02:38:55;;;;;;;25.63;4.70;;;;;;;15.32;50.95;98418.00;5026372;27;96895;-89
2024/04/01 02:41:21;;;;;;;30.80;6.65;;;;;;;15.35;50.81;98423.03;5043444;27;100858;-89
2024/04/01 02:43:46;;;;;;;24.55;6.15;;;;;;;14.94;51.79;98411.47;5060666;27;97970;-89
2024/04/01 02:46:13;;;;;;;29.38;6.25;;;;;;;14.83;52.08;98404.41;5043504;27;96605;-90
2024/04/01 02:48:38;;;;;;;42.67;6.43;;;;;;;15.02;51.69;98406.38;5026719;27;96809;-89
2024/04/01 02:51:04;;;;;;;36.83;7.45;;;;;;;14.78;52.13;98392.56;5025695;27;100894;-89
2024/04/01 02:53:30;;;;;;;36.83;6.47;;;;;;;14.89;52.10;98388.09;5026044;27;100998;-88
2024/04/01 02:55:56;;;;;;;30.10;5.28;;;;;;;15.03;51.70;98386.09;5043141;27;96590;-88
2024/04/01 02:58:21;;;;;;;29.73;6.18;;;;;;;15.16;51.40;98376.19;5026433;27;96836;-89
2024/04/01 03:00:47;;;;;;;42.00;6.68;;;;;;;15.09;51.93;98377.66;5059966;27;97271;-89
2024/04/01 03:03:13;;;;;;;33.38;7.13;;;;;;;15.14;51.57;98373.66;5025556;27;101102;-88
2024/04/01 03:05:38;;;;;;;34.78;5.68;;;;;;;15.12;51.83;98366.81;5042864;27;96889;-88
2024/04/01 03:08:06;;;;;;;32.70;5.97;;;;;;;15.15;51.65;98351.56;5044240;27;96603;-89
2024/04/01 03:10:36;;;;;;;38.78;5.63;;;;;;;15.07;51.83;98355.81;5042642;27;101852;-90
2024/04/01 03:13:06;;;;;;;32.05;5.13;;;;;;;14.98;51.90;98348.63;5025908;27;102216;-89
2024/04/01 03:15:32;;;;;;;27.35;5.55;;;;;;;14.91;52.17;98346.50;5059652;27;96581;-90
2024/04/01 03:17:58;;;;;;;25.50;5.00;;;;;;;15.06;51.76;98354.94;5042879;27;96837;-90
2024/04/01 03:20:24;;;;;;;27.55;6.70;;;;;;;15.02;51.86;98364.13;5042330;27;100438;-89
2024/04/01 03:22:49;;;;;;;34.70;6.82;;;;;;;14.84;52.16;98358.56;5042688;27;97943;-89
2024/04/01 03:25:15;;;;;;;29.83;6.03;;;;;;;14.83;52.54;98359.50;5025951;27;96624;-89
2024/04/01 03:27:40;;;;;;;30.10;6.60;;;;;;;14.91;52.48;98378.19;5059861;27;96789;-90
2024/04/01 03:30:08;;;;;;;29.70;5.50;;;;;;;14.73;52.54;98370.97;5025560;27;100289;-90
2024/04/01 03:32:34;;;;;;;34.20;6.35;;;;;;;14.85;52.55;98365.50;5042918;27;101250;-89
2024/04/01 03:35:00;;;;;;;28.25;5.22;;;;;;;14.63;52.92;98376.16;5042558;27;96618;-89
2024/04/01 03:37:25;;;;;;;30.65;5.25;;;;;;;14.63;53.46;98381.44;5025921;27;96922;-89
2024/04/01 03:39:51;;;;;;;30.98;6.18;;;;;;;14.50;53.34;98386.84;5041736;27;101508;-89
2024/04/01 03:42:17;;;;;;;34.60;5.45;;;;;;;14.44;53.74;98393.44;5025238;27;100204;-89
2024/04/01 03:44:42;;;;;;;35.42;6.05;;;;;;;14.32;53.95;98394.44;5042883;27;96583;-89
2024/04/01 03:47:08;;;;;;;20.55;5.20;;;;;;;14.02;54.43;98387.13;5059889;27;96581;-90
2024/04/01 03:49:34;;;;;;;36.38;5.32;;;;;;;14.06;54.64;98399.16;5059249;27;98081;-89
2024/04/01 03:52:00;;;;;;;29.02;6.00;;;;;;;14.23;54.18;98393.38;5042132;27;101057;-90
2024/04/01 03:54:25;;;;;;;28.23;5.13;;;;;;;14.23;54.32;98403.94;5059719;27;96615;-89
2024/04/01 03:56:51;;;;;;;32.55;5.63;;;;;;;14.12;54.45;98419.75;5025862;27;96864;-88
2024/04/01 03:59:18;;;;;;;28.23;5.78;;;;;;;14.10;54.49;98403.22;5041715;27;100322;-89
2024/04/01 04:01:46;;;;;;;27.33;6.10;;;;;;;14.17;54.35;98396.50;5043330;27;97592;-89
2024/04/01 04:04:12;;;;;;;23.60;5.47;;;;;;;14.25;54.04;98395.88;5024905;27;97156;-88
2024/04/01 04:06:39;;;;;;;23.35;4.97;;;;;;;14.32;54.12;98396.25;5042190;27;96488;-89
2024/04/01 04:09:15;;;;;;;26.75;5.70;;;;;;;14.38;54.09;98401.88;5058855;27;97694;-90
2024/04/01 04:11:50;;;;;;;29.00;5.55;;;;;;;14.41;54.12;98400.78;5043667;27;98373;-89
2024/04/01 04:14:20;;;;;;;20.85;4.80;;;;;;;14.44;53.91;98397.91;5024640;27;96720;-90
2024/04/01 04:16:46;;;;;;;19.90;5.20;;;;;;;14.48;53.59;98421.28;5042028;27;96840;-89
2024/04/01 04:19:12;;;;;;;26.38;5.40;;;;;;;14.42;54.27;98424.41;5025112;27;101255;-89
2024/04/01 04:21:38;;;;;;;18.50;4.28;;;;;;;14.40;54.19;98404.41;5042028;27;100887;-90
2024/04/01 04:24:03;;;;;;;30.38;6.03;;;;;;;14.21;54.42;98386.53;5025411;27;96627;-89
2024/04/01 04:26:29;;;;;;;20.88;5.57;;;;;;;14.29;54.80;98392.03;5059177;27;96454;-89
2024/04/01 04:28:55;;;;;;;22.05;4.00;;;;;;;14.31;54.39;98389.28;5024464;27;101496;-90
2024/04/01 04:31:20;;;;;;;24.88;4.35;;;;;;;14.50;54.12;98377.13;5041584;27;101750;-89
2024/04/01 04:33:46;;;;;;;28.63;5.25;;;;;;;14.49;54.16;98375.44;5041867;27;96536;-89
2024/04/01 04:36:12;;;;;;;21.85;4.28;;;;;;;14.63;53.86;98392.84;5041961;27;96946;-89
2024/04/01 04:38:37;;;;;;;36.67;5.82;;;;;;;14.64;53.56;98377.84;5024631;27;100380;-89
2024/04/01 04:41:04;;;;;;;27.88;4.90;;;;;;;14.50;54.23;98363.09;5041339;27;101617;-89
2024/04/01 04:43:30;;;;;;;31.52;5.60;;;;;;;14.52;54.05;98357.72;5024917;27;96641;-89
2024/04/01 04:45:56;;;;;;;32.28;5.50;;;;;;;14.38;54.90;98348.25;5025254;27;96739;-87
2024/04/01 04:48:22;;;;;;;24.13;4.55;;;;;;;14.35;54.79;98354.59;5041668;27;97154;-89
2024/04/01 04:50:48;;;;;;;21.55;4.50;;;;;;;14.16;55.25;98338.56;5041299;27;99929;-90
2024/04/01 04:53:13;;;;;;;20.33;5.00;;;;;;;14.32;54.87;98332.91;5041308;27;96556;-89
2024/04/01 04:55:42;;;;;;;23.48;5.75;;;;;;;14.24;55.10;98344.06;5025275;27;96877;-89
2024/04/01 04:58:09;;;;;;;26.15;5.10;;;;;;;14.15;55.42;98332.44;5040976;27;100098;-90
2024/04/01 05:00:35;;;;;;;22.20;4.93;;;;;;;14.23;55.33;98321.28;5041642;27;98322;-89
2024/04/01 05:03:00;;;;;;;25.63;5.22;;;;;;;14.14;55.36;98317.59;5041672;27;96557;-88
2024/04/01 05:05:26;;;;;;;33.40;5.63;;;;;;;14.18;55.40;98307.63;5037468;27;96855;-89
2024/04/01 05:07:52;;;;;;;25.55;5.63;;;;;;;13.99;55.77;98326.72;5037257;27;101430;-89
2024/04/01 05:10:17;;;;;;;17.35;4.40;;;;;;;14.13;55.32;98338.81;5038051;27;97847;-89
2024/04/01 05:12:43;;;;;;;20.00;3.90;;;;;;;14.24;55.00;98341.44;5037955;27;96596;-89
2024/04/01 05:15:09;;;;;;;15.38;4.15;;;;;;;14.32;55.43;98354.03;5055599;27;96909;-88
2024/04/01 05:17:35;;;;;;;22.63;4.13;;;;;;;14.20;55.24;98347.94;5037196;27;98620;-89
2024/04/01 05:20:01;;;;;;;24.10;4.57;;;;;;;14.02;55.71;98342.28;5037309;27;101538;-89
2024/04/01 05:22:27;;;;;;;26.52;5.10;;;;;;;14.14;55.45;98338.69;5054853;27;96590;-89
2024/04/01 05:24:54;;;;;;;20.60;3.50;;;;;;;14.29;54.99;98346.34;5054763;27;96841;-91
2024/04/01 05:27:20;;;;;;;19.08;5.18;;;;;;;14.40;54.92;98348.97;5041142;27;97578;-89
2024/04/01 05:29:53;;;;;;;27.10;4.55;;;;;;;14.31;55.38;98353.19;5024108;27;101568;-89
2024/04/01 05:32:19;;;;;;;31.58;5.97;;;;;;;14.37;55.06;98336.84;5041019;27;96562;-90
2024/04/01 05:34:45;;;;;;;21.70;3.58;;;;;;;14.58;54.41;98344.84;5058384;27;96882;-89
2024/04/01 05:37:10;;;;;;;13.15;3.67;;;;;;;14.67;54.51;98352.03;5024223;27;101643;-89
2024/04/01 05:39:36;;;;;;;16.60;4.47;;;;;;;14.63;54.74;98347.09;5057825;27;98081;-89
2024/04/01 05:42:01;;;;;;;18.30;3.55;;;;;;;14.66;54.61;98331.88;5024053;27;96566;-89
2024/04/01 05:44:27;;;;;;;27.83;4.95;;;;;;;14.49;55.00;98346.41;5041153;27;96574;-90
2024/04/01 05:46:52;;;;;;;15.07;3.58;;;;;;;14.64;54.79;98341.72;5040638;27;102245;-89
2024/04/01 05:49:18;;;;;;;25.92;5.03;;;;;;;14.89;54.64;98348.47;5040725;27;100753;-89
2024/04/01 05:51:43;;;;;;;28.88;5.28;;;;;;;14.76;54.77;98345.13;5058106;27;96564;-91
2024/04/01 05:54:09;;;;;;;15.70;4.28;;;;;;;15.12;54.33;98343.03;5023958;27;96639;-90
2024/04/01 05:56:34;;;;;;;30.98;6.00;;;;;;;15.80;52.27;98332.88;5041005;27;98424;-89
2024/04/01 05:59:00;;;;;;;28.90;5.13;;;;;;;15.61;52.30;98329.13;5040650;27;100245;-90
2024/04/01 06:01:25;;;;;;;32.13;5.65;;;;;;;15.70;52.58;98305.53;5023707;27;96571;-90
2024/04/01 06:03:51;;;;;;;25.63;4.32;;;;;;;15.25;53.42;98282.91;5041313;27;96865;-89
2024/04/01 06:06:17;;;;;;;21.42;5.53;;;;;;;15.03;53.76;98260.09;5060627;27;97960;-90
2024/04/01 06:08:42;;;;;;;26.38;4.13;;;;;;;15.11;53.92;98264.75;5043549;27;101112;-90
2024/04/01 06:11:08;;;;;;;24.25;4.55;;;;;;;15.28;53.48;98265.94;5027176;27;96535;-89
2024/04/01 06:13:33;;;;;;;22.65;4.47;;;;;;;15.19;53.58;98303.75;5027304;27;96989;-90
2024/04/01 06:15:59;;;;;;;21.60;4.22;;;;;;;15.33;53.52;98304.22;5043852;27;98311;-91
2024/04/01 06:18:24;;;;;;;31.42;5.32;;;;;;;15.21;53.34;98313.19;5043678;27;101066;-90
2024/04/01 06:20:50;;;;;;;21.35;3.83;;;;;;;15.16;53.53;98320.69;5079210;27;96535;-89
2024/04/01 06:23:15;;;;;;;26.02;5.25;;;;;;;14.91;54.35;98321.91;5043740;27;96685;-90
2024/04/01 06:25:42;;;;;;;16.85;3.92;;;;;;;14.86;54.58;98310.88;5060724;27;98092;-90
2024/04/01 06:28:08;;;;;;;21.55;3.78;;;;;;;15.11;53.83;98299.09;5043526;27;101495;-90
2024/04/01 06:30:34;;;;;;;20.08;3.25;;;;;;;15.20;53.71;98302.75;5043084;27;96614;-90
2024/04/01 06:33:00;;;;;;;19.23;3.97;;;;;;;15.27;53.72;98307.41;5044014;27;96850;-90
2024/04/01 06:35:26;;;;;;;15.80;3.58;;;;;;;15.24;53.72;98309.44;5043231;27;101455;-90
2024/04/01 06:37:51;;;;;;;19.20;4.68;;;;;;;15.35;54.01;98298.81;5059594;27;98327;-89
2024/04/01 06:40:17;;;;;;;15.95;4.15;;;;;;;15.52;53.49;98307.94;5043376;27;96637;-90
2024/04/01 06:42:43;;;;;;;21.73;3.50;;;;;;;15.54;53.46;98329.81;5026531;27;96575;-89
2024/04/01 06:45:08;;;;;;;32.63;4.63;;;;;;;15.51;53.72;98327.44;5043383;27;100449;-90
2024/04/01 06:47:33;;;;;;;30.10;6.53;;;;;;;15.66;53.33;98325.25;5043405;27;101445;-90
2024/04/01 06:49:59;;;;;;;18.85;4.05;;;;;;;15.69;53.36;98322.38;5026613;27;96527;-90
2024/04/01 06:52:24;;;;;;;20.25;5.32;;;;;;;16.13;52.52;98333.53;5026470;27;97016;-89
2024/04/01 06:54:50;;;;;;;23.73;4.40;;;;;;;16.13;52.59;98331.72;5043003;27;98436;-90
2024/04/01 06:57:16;;;;;;;24.35;5.38;;;;;;;16.05;52.80;98331.53;5042937;27;101150;-90
2024/04/01 06:59:41;;;;;;;26.98;4.70;;;;;;;16.02;52.91;98345.88;5060492;27;96580;-90
2024/04/01 07:02:07;;;;;;;32.05;5.38;;;;;;;15.91;53.31;98358.38;5026317;27;96872;-90
2024/04/01 07:04:32;;;;;;;25.88;4.78;;;;;;;16.26;52.71;98376.44;5025698;27;100013;-88
2024/04/01 07:06:58;;;;;;;23.25;4.97;;;;;;;16.44;52.35;98382.78;5078019;27;98347;-90
2024/04/01 07:09:23;;;;;;;19.42;5.07;;;;;;;16.34;52.67;98368.69;5060233;27;96572;-89
2024/04/01 07:11:49;;;;;;;21.00;5.93;;;;;;;16.18;53.05;98374.50;5027319;27;96962;-90
2024/04/01 07:14:14;;;;;;;22.90;5.78;;;;;;;16.51;52.56;98372.47;5032881;27;101412;-90
2024/04/01 07:16:40;;;;;;;22.40;4.25;;;;;;;17.50;50.39;98370.53;5045741;27;97956;-90
2024/04/01 07:19:05;;;;;;;24.65;5.15;;;;;;;17.94;49.85;98373.47;5025637;27;96620;-89
2024/04/01 07:21:32;;;;;;;21.55;5.03;;;;;;;18.78;47.52;98368.00;5026218;27;96650;-89
2024/04/01 07:23:58;;;;;;;28.50;6.55;;;;;;;20.00;45.58;98361.91;5059733;27;98371;-89
2024/04/01 07:26:23;;;;;;;29.88;5.75;;;;;;;20.97;43.13;98362.34;5059796;27;98327;-88
2024/04/01 07:28:49;;;;;;;19.10;4.90;;;;;;;20.95;43.08;98354.53;5042343;27;96622;-89
2024/04/01 07:31:14;;;;;;;26.83;5.22;;;;;;;20.72;43.43;98345.50;5042665;27;96629;-88
2024/04/01 07:33:59;;;;;;;29.92;6.15;;;;;;;20.56;44.08;98349.78;5027556;27;100419;-87
2024/04/01 07:36:25;;;;;;;25.77;6.18;;;;;;;21.14;43.01;98342.66;5060154;27;98093;-88
2024/04/01 07:38:50;;;;;;;29.10;5.80;;;;;;;21.50;42.15;98346.84;5042604;27;96540;-87
2024/04/01 07:41:16;;;;;;;21.85;4.97;;;;;;;22.53;40.73;98336.13;5042634;27;96879;-88
2024/04/01 07:43:41;;;;;;;25.42;4.85;;;;;;;23.15;39.22;98333.34;5024849;27;101071;-88
2024/04/01 07:46:07;;;;;;;20.42;4.70;;;;;;;22.33;40.65;98336.56;5042400;27;97906;-87
2024/04/01 07:48:33;;;;;;;27.30;6.20;;;;;;;21.55;42.29;98339.16;5025227;27;96779;-88
2024/04/01 07:51:02;;;;;;;21.73;4.75;;;;;;;21.14;42.74;98344.50;5059088;27;96912;-88
2024/04/01 07:53:28;;;;;;;25.02;5.30;;;;;;;20.70;42.90;98323.50;5041987;27;98101;-88
2024/04/01 07:55:54;;;;;;;24.95;5.38;;;;;;;21.07;42.01;98312.34;5024804;27;101634;-88
2024/04/01 07:58:19;;;;;;;21.63;4.32;;;;;;;20.69;42.92;98304.00;5041728;27;96613;-89
2024/04/01 08:00:45;;;;;;;21.85;5.80;;;;;;;20.65;43.00;98293.81;5025332;27;96884;-89
2024/04/01 08:03:12;;;;;;;31.35;5.72;;;;;;;20.21;43.97;98297.53;5024632;27;100918;-88
2024/04/01 08:05:38;;;;;;;24.42;4.65;;;;;;;20.02;44.33;98305.84;5024430;27;101762;-87
2024/04/01 08:08:04;;;;;;;28.67;5.65;;;;;;;19.84;45.20;98304.09;5024332;27;96728;-88
2024/04/01 08:10:30;;;;;;;21.77;4.32;;;;;;;19.99;44.91;98292.84;5024859;27;96916;-89
2024/04/01 08:12:55;;;;;;;23.52;4.88;;;;;;;19.91;45.19;98304.28;5041364;27;101152;-88
2024/04/01 08:15:21;;;;;;;20.70;5.40;;;;;;;20.47;44.62;98294.78;5041788;27;97064;-88
2024/04/01 08:17:46;;;;;;;25.10;5.40;;;;;;;22.19;41.52;98275.84;5024962;27;96666;-88
2024/04/01 08:20:12;;;;;;;35.65;9.07;;;;;;;21.15;43.18;98277.66;5042058;27;96791;-88
2024/04/01 08:22:37;;;;;;;34.03;5.13;;;;;;;20.39;44.92;98272.59;5041037;27;100089;-88
2024/04/01 08:25:04;;;;;;;26.13;5.38;;;;;;;20.08;45.49;98251.91;5024567;27;100748;-88
2024/04/01 08:27:30;;;;;;;31.48;6.88;;;;;;;19.71;46.90;98233.66;5041946;27;96533;-89
2024/04/01 08:29:55;;;;;;;27.42;5.03;;;;;;;19.65;47.06;98213.84;5041925;27;96632;-88
2024/04/01 08:32:21;;;;;;;32.60;8.75;;;;;;;19.68;46.98;98218.84;5041015;27;99918;-89
2024/04/01 08:34:47;;;;;;;27.23;5.78;;;;;;;20.26;45.95;98212.66;5041528;27;98285;-89
2024/04/01 08:37:12;;;;;;;34.42;5.57;;;;;;;20.59;45.13;98210.03;5040959;27;96579;-88
2024/04/01 08:39:38;;;;;;;21.42;5.03;;;;;;;20.69;45.17;98204.56;5058110;27;96887;-88
2024/04/01 08:42:04;;;;;;;24.33;4.75;;;;;;;22.39;42.16;98193.38;5041024;27;97950;-82
2024/04/01 08:44:32;;;;;;;21.20;4.95;;;;;;;21.09;44.19;98184.13;5041069;27;97902;-88
2024/04/01 08:46:59;;;;;;;27.92;5.90;;;;;;;22.65;41.15;98184.97;5040807;27;96533;-87
2024/04/01 08:49:49;;;;;;;26.30;5.72;;;;;;;22.21;41.88;98196.34;5024151;27;97006;-90
2024/04/01 08:52:20;;;;;;;36.85;6.95;;;;;;;21.72;43.12;98222.47;5041333;27;101486;-90
2024/04/01 08:54:45;;;;;;;;;;;;;;;21.18;44.00;98223.97;5041670;27;101315;-90
2024/04/01 08:57:11;;;;;;;43.78;7.00;;;;;;;21.03;44.38;98237.19;5040979;27;96557;-90
2024/04/01 08:59:37;;;;;;;32.33;5.55;;;;;;;20.88;44.70;98240.69;5023743;27;96663;-85
2024/04/01 09:02:03;;;;;;;36.90;6.32;;;;;;;20.47;45.01;98251.31;5039822;27;98067;-85
2024/04/01 09:04:29;;;;;;;48.03;8.88;;;;;;;20.34;45.48;98246.47;5022977;27;101785;-85
2024/04/01 09:06:56;;;;;;;38.35;6.45;;;;;;;20.47;45.52;98236.16;5040638;27;96556;-87
2024/04/01 09:09:22;;;;;;;48.33;8.90;;;;;;;20.35;46.10;98245.47;5040610;27;96803;-84
2024/04/01 09:11:48;;;;;;;49.42;8.27;;;;;;;19.98;47.02;98248.56;5039580;27;100974;-84
2024/04/01 09:14:13;;;;;;;46.97;7.93;;;;;;;19.72;47.64;98251.28;5023122;27;101139;-83
2024/04/01 09:16:39;;;;;;;52.53;8.60;;;;;;;19.37;48.67;98237.13;5040038;27;96610;-84
2024/04/01 09:19:07;;;;;;;48.08;8.95;;;;;;;19.31;49.12;98235.09;5039923;27;96927;-86
2024/04/01 09:21:34;;;;;;;45.83;9.10;;;;;;;19.32;49.41;98236.78;5022628;27;101376;-84
2024/04/01 09:24:00;;;;;;;61.88;10.35;;;;;;;19.25;49.96;98238.41;5039734;27;101482;-82
2024/04/01 09:26:32;;;;;;;54.22;9.63;;;;;;;19.41;49.70;98241.97;5040137;27;96527;-82
2024/04/01 09:29:00;;;;;;;41.33;8.18;;;;;;;19.27;50.54;98233.75;5039682;27;96843;-83
2024/04/01 09:31:25;;;;;;;49.08;8.77;;;;;;;19.47;50.25;98229.88;5040531;27;98536;-85
2024/04/01 09:33:52;;;;;;;36.67;7.65;;;;;;;19.78;49.60;98229.34;5022743;27;101072;-85
2024/04/01 09:36:17;;;;;;;44.45;8.20;;;;;;;21.57;46.26;98203.69;5039980;27;96521;-86
2024/04/01 09:38:44;;;;;;;59.85;10.20;;;;;;;21.42;45.92;98199.06;5040294;27;96829;-85
2024/04/01 09:41:10;;;;;;;45.42;9.13;;;;;;;21.76;45.56;98202.41;5039683;27;101327;-90
2024/04/01 09:43:36;;;;;;;49.97;9.90;;;;;;;22.93;43.59;98205.78;5024137;27;101581;-88
2024/04/01 09:46:01;;;;;;;49.13;8.45;;;;;;;24.15;40.73;98198.97;5040234;27;96534;-86
2024/04/01 09:48:28;;;;;;;51.35;10.65;;;;;;;22.56;43.42;98173.50;5057647;27;96842;-88
2024/04/01 09:51:00;;;;;;;46.60;9.55;;;;;;;21.70;45.22;98167.44;5040632;27;101814;-88
2024/04/01 09:53:28;;;;;;;46.80;12.02;;;;;;;21.74;45.24;98170.56;5057383;27;98189;-88
2024/04/01 09:56:16;;;;;;;57.88;11.65;;;;;;;21.93;44.77;98177.28;5039872;27;96664;-87
2024/04/01 09:59:11;;;;;;;52.17;9.15;;;;;;;22.17;44.25;98165.66;5056657;27;96683;-87
2024/04/01 10:02:01;;;;;;;51.55;9.70;;;;;;;22.32;43.62;98152.34;5022831;27;101038;-89
2024/04/01 10:04:46;;;;;;;63.10;11.10;;;;;;;22.06;44.79;98145.50;5052999;27;100380;-88
2024/04/01 10:07:11;;;;;;;49.15;10.18;;;;;;;22.48;44.09;98133.47;5053328;27;96560;-88
2024/04/01 10:09:58;;;;;;;47.50;10.48;;;;;;;22.90;43.64;98121.38;5036593;27;96640;-87
2024/04/01 10:12:33;;;;;;;60.78;9.85;;;;;;;22.85;43.53;98125.63;5035800;27;101339;-89
2024/04/01 10:15:11;;;;;;;50.97;9.63;;;;;;;22.75;43.39;98133.91;5040137;27;99595;-89
2024/04/01 10:17:57;;;;;;;54.03;9.65;;;;;;;22.58;42.30;98142.09;5040521;27;96588;-91
2024/04/01 10:20:52;;;;;;;44.33;10.60;;;;;;;22.14;43.08;98118.72;5058225;27;96799;-90
2024/04/01 10:23:36;;;;;;;59.55;9.77;;;;;;;22.11;43.82;98115.59;5057311;27;96610;-87
2024/04/01 10:26:07;;;;;;;53.58;10.65;;;;;;;22.02;44.35;98122.84;5039402;27;97979;-90
2024/04/01 10:28:48;;;;;;;53.45;10.35;;;;;;;22.13;44.02;98141.09;5040172;27;96837;-90
2024/04/01 10:31:30;;;;;;;55.67;9.52;;;;;;;22.08;44.08;98124.78;5040064;27;96548;-90
2024/04/01 10:34:35;;;;;;;53.22;9.95;;;;;;;22.14;43.95;98105.38;5022704;27;101233;-89
2024/04/01 10:37:22;;;;;;;48.80;9.73;;;;;;;22.22;44.05;98092.97;5056743;27;98306;-90
2024/04/01 10:40:00;;;;;;;47.63;9.85;;;;;;;22.21;44.27;98104.69;5039137;27;96540;-89
2024/04/01 10:42:58;;;;;;;52.72;8.60;;;;;;;22.12;44.03;98111.91;5057959;27;96609;-89
2024/04/01 10:45:26;;;;;;;43.83;8.93;;;;;;;22.32;44.15;98118.44;5056184;27;100743;-90
2024/04/01 10:48:15;;;;;;;41.58;9.27;;;;;;;22.51;43.93;98121.59;5056477;27;98028;-89
2024/04/01 10:50:41;;;;;;;54.28;11.32;;;;;;;22.45;44.68;98116.97;5046377;27;97101;-89
2024/04/01 10:53:58;;;;;;;59.90;9.38;;;;;;;22.29;44.28;98121.47;5056635;27;96538;-89
2024/04/01 10:56:50;;;;;;;52.70;9.98;;;;;;;22.37;44.59;98117.91;4997266;27;100726;-91
2024/04/01 10:59:44;;;;;;;56.22;10.70;;;;;;;22.47;43.91;98114.97;5056541;27;98388;-89
2024/04/01 11:02:28;;;;;;;60.92;9.25;;;;;;;22.32;43.74;98105.06;5058058;27;96527;-91
2024/04/01 11:05:24;;;;;;;57.17;10.60;;;;;;;22.53;43.98;98101.69;5056293;27;96818;-91
2024/04/01 11:08:09;;;;;;;59.92;9.18;;;;;;;22.66;43.38;98095.75;5038324;27;100547;-91
2024/04/01 11:11:18;;;;;;;51.45;9.90;;;;;;;22.52;43.70;98089.34;5056182;27;98236;-90
2024/04/01 11:13:44;;;;;;;56.90;10.18;;;;;;;22.53;44.26;98104.38;5018063;27;96677;-89
2024/04/01 11:16:10;;;;;;;43.08;8.48;;;;;;;22.52;44.27;98092.03;5022479;27;96980;-89
2024/04/01 11:18:50;;;;;;;43.47;8.32;;;;;;;22.49;43.49;98084.38;5039018;27;98361;-90
2024/04/01 11:21:30;;;;;;;45.67;9.60;;;;;;;22.55;43.30;98083.66;5038548;27;101682;-91
2024/04/01 11:24:18;;;;;;;58.15;9.15;;;;;;;22.61;42.97;98092.78;5038390;27;96546;-90
2024/04/01 11:26:43;;;;;;;37.38;7.28;;;;;;;22.77;43.03;98092.59;5039088;27;96828;-89